Buchanan, Iowa
Current Conditions -  °F | °C
As of 7:52 AM on Thursday 18 Dec 2014 (Local Time) from KIOW Reporting Station
Clear Clear  
Wind Chill: 20°   Ceiling: Unl
Heat Index: 20°   Visibility: 10mi
Dew Point: 16°   Wind: 3mph
Humidity: 85%   Direction: 40°NE
Pressure: 30.32"   Gusts: NA
Location:  41.7563°N, 91.1443°W
Report Text: KIOW 181352Z AUTO 04003KT 10SM CLR M07/M09 A3032 RMK AO2 SLP277 T10671089
Loading
Personal Weather Stations






























Interactive Weather Map New forecast layout! Learn more

10-Day Weather Forecast

Advertisements
Track Severe Weather on mobile